sensor_id;sensor_type;location;lat;lon;timestamp;pressure;altitude;pressure_sealevel;temperature;humidity
70206;BME280;57593;55.896;37.396;2023-04-08T00:00:17;100439.66;;;7.58;53.35
70206;BME280;57593;55.896;37.396;2023-04-08T00:00:48;100439.22;;;7.50;53.68
70206;BME280;57593;55.896;37.396;2023-04-08T00:01:19;100447.75;;;7.61;53.75
70206;BME280;57593;55.896;37.396;2023-04-08T00:01:50;100443.06;;;7.58;54.02
70206;BME280;57593;55.896;37.396;2023-04-08T00:02:21;100431.81;;;7.52;54.08
70206;BME280;57593;55.896;37.396;2023-04-08T00:02:52;100442.78;;;7.60;54.26
70206;BME280;57593;55.896;37.396;2023-04-08T00:03:22;100437.72;;;7.63;54.47
70206;BME280;57593;55.896;37.396;2023-04-08T00:03:53;100435.66;;;7.60;54.64
70206;BME280;57593;55.896;37.396;2023-04-08T00:04:24;100440.63;;;7.62;54.58
70206;BME280;57593;55.896;37.396;2023-04-08T00:04:54;100437.44;;;7.65;54.63
70206;BME280;57593;55.896;37.396;2023-04-08T00:05:25;100437.81;;;7.58;54.58
70206;BME280;57593;55.896;37.396;2023-04-08T00:05:55;100443.41;;;7.51;54.75
70206;BME280;57593;55.896;37.396;2023-04-08T00:06:26;100434.41;;;7.58;54.82
70206;BME280;57593;55.896;37.396;2023-04-08T00:06:57;100433.38;;;7.53;55.03
70206;BME280;57593;55.896;37.396;2023-04-08T00:07:27;100441.34;;;7.48;55.35
70206;BME280;57593;55.896;37.396;2023-04-08T00:07:58;100446.72;;;7.38;55.89
70206;BME280;57593;55.896;37.396;2023-04-08T00:08:29;100441.53;;;7.33;56.15
70206;BME280;57593;55.896;37.396;2023-04-08T00:09:00;100442.47;;;7.42;56.50
70206;BME280;57593;55.896;37.396;2023-04-08T00:09:30;100444.38;;;7.36;56.69
70206;BME280;57593;55.896;37.396;2023-04-08T00:10:01;100441.09;;;7.45;56.40
70206;BME280;57593;55.896;37.396;2023-04-08T00:10:32;100443.53;;;7.41;56.50
70206;BME280;57593;55.896;37.396;2023-04-08T00:11:03;100439.41;;;7.35;56.64
70206;BME280;57593;55.896;37.396;2023-04-08T00:11:33;100440.22;;;7.30;56.52
70206;BME280;57593;55.896;37.396;2023-04-08T00:12:04;100445.38;;;7.41;56.89
70206;BME280;57593;55.896;37.396;2023-04-08T00:12:35;100436.66;;;7.45;56.90
70206;BME280;57593;55.896;37.396;2023-04-08T00:13:06;100441.06;;;7.50;56.55
70206;BME280;57593;55.896;37.396;2023-04-08T00:13:36;100450.09;;;7.44;56.24
70206;BME280;57593;55.896;37.396;2023-04-08T00:14:07;100444.09;;;7.38;56.28
70206;BME280;57593;55.896;37.396;2023-04-08T00:14:38;100443.69;;;7.50;56.05
70206;BME280;57593;55.896;37.396;2023-04-08T00:15:10;100440.34;;;7.44;55.81
70206;BME280;57593;55.896;37.396;2023-04-08T00:15:41;100442.34;;;7.52;55.82
70206;BME280;57593;55.896;37.396;2023-04-08T00:16:11;100436.03;;;7.53;56.01
70206;BME280;57593;55.896;37.396;2023-04-08T00:16:42;100440.63;;;7.62;55.57
70206;BME280;57593;55.896;37.396;2023-04-08T00:17:13;100442.28;;;7.58;55.85
70206;BME280;57593;55.896;37.396;2023-04-08T00:17:43;100438.53;;;7.64;55.80
70206;BME280;57593;55.896;37.396;2023-04-08T00:18:15;100441.66;;;7.66;55.51
70206;BME280;57593;55.896;37.396;2023-04-08T00:18:46;100439.31;;;7.40;56.24
70206;BME280;57593;55.896;37.396;2023-04-08T00:19:18;100441.19;;;7.40;56.68
70206;BME280;57593;55.896;37.396;2023-04-08T00:19:50;100437.44;;;7.46;57.41
70206;BME280;57593;55.896;37.396;2023-04-08T00:20:22;100435.81;;;7.50;57.20
70206;BME280;57593;55.896;37.396;2023-04-08T00:20:53;100447.72;;;7.42;57.01
70206;BME280;57593;55.896;37.396;2023-04-08T00:21:24;100440.22;;;7.54;57.14
70206;BME280;57593;55.896;37.396;2023-04-08T00:21:56;100439.69;;;7.52;56.78
70206;BME280;57593;55.896;37.396;2023-04-08T00:22:27;100438.47;;;7.45;56.67
70206;BME280;57593;55.896;37.396;2023-04-08T00:22:58;100436.13;;;7.43;57.04
70206;BME280;57593;55.896;37.396;2023-04-08T00:23:28;100434.81;;;7.46;57.23
70206;BME280;57593;55.896;37.396;2023-04-08T00:23:59;100438.75;;;7.43;57.29
70206;BME280;57593;55.896;37.396;2023-04-08T00:24:30;100431.69;;;7.44;57.56
70206;BME280;57593;55.896;37.396;2023-04-08T00:25:01;100434.06;;;7.40;57.61
70206;BME280;57593;55.896;37.396;2023-04-08T00:25:32;100435.53;;;7.51;57.56
70206;BME280;57593;55.896;37.396;2023-04-08T00:26:02;100434.97;;;7.54;56.95
70206;BME280;57593;55.896;37.396;2023-04-08T00:26:33;100437.91;;;7.48;57.07
70206;BME280;57593;55.896;37.396;2023-04-08T00:27:04;100437.22;;;7.42;57.43
70206;BME280;57593;55.896;37.396;2023-04-08T00:27:35;100432.53;;;7.39;57.35
70206;BME280;57593;55.896;37.396;2023-04-08T00:28:05;100435.94;;;7.40;57.93
70206;BME280;57593;55.896;37.396;2023-04-08T00:28:37;100439.41;;;7.54;57.83
70206;BME280;57593;55.896;37.396;2023-04-08T00:29:07;100427.94;;;7.50;57.40
70206;BME280;57593;55.896;37.396;2023-04-08T00:29:38;100435.44;;;7.37;57.72
70206;BME280;57593;55.896;37.396;2023-04-08T00:30:09;100434.88;;;7.41;57.96
70206;BME280;57593;55.896;37.396;2023-04-08T00:30:39;100431.69;;;7.44;57.97
70206;BME280;57593;55.896;37.396;2023-04-08T00:31:10;100443.41;;;7.51;58.05
70206;BME280;57593;55.896;37.396;2023-04-08T00:31:41;100439.50;;;7.49;58.12
70206;BME280;57593;55.896;37.396;2023-04-08T00:32:11;100441.03;;;7.31;58.69
70206;BME280;57593;55.896;37.396;2023-04-08T00:32:42;100442.59;;;7.32;58.55
70206;BME280;57593;55.896;37.396;2023-04-08T00:33:13;100436.94;;;7.19;58.83
70206;BME280;57593;55.896;37.396;2023-04-08T00:33:43;100445.84;;;7.24;58.87
70206;BME280;57593;55.896;37.396;2023-04-08T00:34:15;100437.41;;;7.27;59.10
70206;BME280;57593;55.896;37.396;2023-04-08T00:34:45;100444.16;;;7.33;58.97
70206;BME280;57593;55.896;37.396;2023-04-08T00:35:16;100442.03;;;7.35;59.21
70206;BME280;57593;55.896;37.396;2023-04-08T00:35:47;100435.13;;;7.20;59.72
70206;BME280;57593;55.896;37.396;2023-04-08T00:36:17;100447.69;;;7.23;59.75
70206;BME280;57593;55.896;37.396;2023-04-08T00:36:48;100438.78;;;7.19;60.24
70206;BME280;57593;55.896;37.396;2023-04-08T00:37:19;100441.63;;;7.23;60.62
70206;BME280;57593;55.896;37.396;2023-04-08T00:37:50;100440.03;;;7.27;60.98
70206;BME280;57593;55.896;37.396;2023-04-08T00:38:21;100443.31;;;7.13;60.25
70206;BME280;57593;55.896;37.396;2023-04-08T00:38:51;100435.78;;;7.07;61.01
70206;BME280;57593;55.896;37.396;2023-04-08T00:39:22;100439.97;;;7.08;61.13
70206;BME280;57593;55.896;37.396;2023-04-08T00:39:53;100437.66;;;7.01;61.05
70206;BME280;57593;55.896;37.396;2023-04-08T00:40:23;100442.19;;;7.19;60.40
70206;BME280;57593;55.896;37.396;2023-04-08T00:40:54;100439.56;;;7.19;60.01
70206;BME280;57593;55.896;37.396;2023-04-08T00:41:25;100439.06;;;7.17;59.90
70206;BME280;57593;55.896;37.396;2023-04-08T00:41:56;100442.44;;;7.23;59.83
70206;BME280;57593;55.896;37.396;2023-04-08T00:42:27;100447.97;;;7.22;59.79
70206;BME280;57593;55.896;37.396;2023-04-08T00:43:00;100446.50;;;7.10;60.03
70206;BME280;57593;55.896;37.396;2023-04-08T00:43:30;100446.75;;;7.14;60.03
70206;BME280;57593;55.896;37.396;2023-04-08T00:44:01;100449.41;;;7.09;60.37
70206;BME280;57593;55.896;37.396;2023-04-08T00:44:32;100445.09;;;7.18;60.09
70206;BME280;57593;55.896;37.396;2023-04-08T00:45:03;100442.34;;;7.04;60.39
70206;BME280;57593;55.896;37.396;2023-04-08T00:45:34;100442.53;;;7.13;60.75
70206;BME280;57593;55.896;37.396;2023-04-08T00:46:04;100443.94;;;7.05;60.48
70206;BME280;57593;55.896;37.396;2023-04-08T00:46:38;100443.31;;;7.13;60.65
70206;BME280;57593;55.896;37.396;2023-04-08T00:47:13;100442.59;;;7.08;60.64
70206;BME280;57593;55.896;37.396;2023-04-08T00:47:44;100445.72;;;7.10;60.42
70206;BME280;57593;55.896;37.396;2023-04-08T00:48:15;100444.84;;;6.95;61.01
70206;BME280;57593;55.896;37.396;2023-04-08T00:48:46;100440.97;;;6.88;61.84
70206;BME280;57593;55.896;37.396;2023-04-08T00:49:17;100442.16;;;7.00;61.87
70206;BME280;57593;55.896;37.396;2023-04-08T00:49:48;100440.44;;;6.86;61.69
70206;BME280;57593;55.896;37.396;2023-04-08T00:50:19;100436.97;;;6.90;62.16
70206;BME280;57593;55.896;37.396;2023-04-08T00:50:50;100447.47;;;6.95;61.81
70206;BME280;57593;55.896;37.396;2023-04-08T00:51:21;100447.34;;;6.81;62.29
70206;BME280;57593;55.896;37.396;2023-04-08T00:51:53;100445.94;;;6.89;62.58
70206;BME280;57593;55.896;37.396;2023-04-08T00:52:24;100442.91;;;7.01;62.03
70206;BME280;57593;55.896;37.396;2023-04-08T00:52:54;100445.16;;;6.89;62.36
70206;BME280;57593;55.896;37.396;2023-04-08T00:53:25;100438.91;;;6.84;61.96
70206;BME280;57593;55.896;37.396;2023-04-08T00:53:56;100442.47;;;6.94;61.64
70206;BME280;57593;55.896;37.396;2023-04-08T00:54:26;100437.44;;;6.97;61.52
70206;BME280;57593;55.896;37.396;2023-04-08T00:54:57;100438.50;;;6.96;61.94
70206;BME280;57593;55.896;37.396;2023-04-08T00:55:28;100434.13;;;6.87;62.12
70206;BME280;57593;55.896;37.396;2023-04-08T00:55:58;100442.50;;;6.89;62.26
70206;BME280;57593;55.896;37.396;2023-04-08T00:56:31;100441.53;;;6.84;62.51
70206;BME280;57593;55.896;37.396;2023-04-08T00:57:04;100445.38;;;6.92;62.22
70206;BME280;57593;55.896;37.396;2023-04-08T00:57:35;100442.47;;;6.94;62.55
70206;BME280;57593;55.896;37.396;2023-04-08T00:58:05;100444.50;;;7.02;61.99
70206;BME280;57593;55.896;37.396;2023-04-08T00:58:37;100442.41;;;6.99;61.90
70206;BME280;57593;55.896;37.396;2023-04-08T00:59:07;100444.00;;;7.00;61.46
70206;BME280;57593;55.896;37.396;2023-04-08T00:59:39;100441.19;;;6.91;61.87
70206;BME280;57593;55.896;37.396;2023-04-08T01:00:10;100447.69;;;6.99;61.93
70206;BME280;57593;55.896;37.396;2023-04-08T01:00:55;100437.72;;;6.96;61.67
70206;BME280;57593;55.896;37.396;2023-04-08T01:02:29;100446.22;;;6.88;62.29
70206;BME280;57593;55.896;37.396;2023-04-08T01:03:49;100445.38;;;6.92;62.85
70206;BME280;57593;55.896;37.396;2023-04-08T01:05:55;100439.88;;;6.89;63.26
70206;BME280;57593;55.896;37.396;2023-04-08T01:07:46;100437.59;;;6.82;63.57
70206;BME280;57593;55.896;37.396;2023-04-08T01:07:58;100446.16;;;6.93;63.98
70206;BME280;57593;55.896;37.396;2023-04-08T01:08:34;100445.94;;;6.89;63.97
70206;BME280;57593;55.896;37.396;2023-04-08T01:09:09;100443.88;;;6.86;63.85
70206;BME280;57593;55.896;37.396;2023-04-08T01:09:45;100444.38;;;6.88;64.16
70206;BME280;57593;55.896;37.396;2023-04-08T01:10:20;100434.59;;;6.94;63.96
70206;BME280;57593;55.896;37.396;2023-04-08T01:10:53;100434.69;;;6.83;64.19
70206;BME280;57593;55.896;37.396;2023-04-08T01:11:28;100436.63;;;6.73;64.82
70206;BME280;57593;55.896;37.396;2023-04-08T01:12:04;100439.22;;;6.78;64.78
70206;BME280;57593;55.896;37.396;2023-04-08T01:12:41;100438.28;;;6.63;64.98
70206;BME280;57593;55.896;37.396;2023-04-08T01:13:16;100434.81;;;6.73;64.88
70206;BME280;57593;55.896;37.396;2023-04-08T01:13:48;100439.66;;;6.85;64.75
70206;BME280;57593;55.896;37.396;2023-04-08T01:14:25;100431.06;;;6.79;64.60
70206;BME280;57593;55.896;37.396;2023-04-08T01:15:02;100438.97;;;6.79;64.39
70206;BME280;57593;55.896;37.396;2023-04-08T01:15:35;100430.56;;;6.77;63.81
70206;BME280;57593;55.896;37.396;2023-04-08T01:16:12;100440.44;;;6.86;64.14
70206;BME280;57593;55.896;37.396;2023-04-08T01:16:44;100446.31;;;6.77;64.64
70206;BME280;57593;55.896;37.396;2023-04-08T01:17:16;100436.91;;;6.71;65.05
70206;BME280;57593;55.896;37.396;2023-04-08T01:17:52;100440.78;;;6.79;65.18
70206;BME280;57593;55.896;37.396;2023-04-08T01:18:23;100443.66;;;6.82;65.37
70206;BME280;57593;55.896;37.396;2023-04-08T01:18:55;100443.59;;;6.88;64.65
70206;BME280;57593;55.896;37.396;2023-04-08T01:19:29;100444.50;;;6.73;64.79
70206;BME280;57593;55.896;37.396;2023-04-08T01:20:02;100437.88;;;6.80;64.57
70206;BME280;57593;55.896;37.396;2023-04-08T01:20:34;100435.09;;;6.72;65.12
70206;BME280;57593;55.896;37.396;2023-04-08T01:21:06;100438.81;;;6.65;65.79
70206;BME280;57593;55.896;37.396;2023-04-08T01:21:37;100436.34;;;6.74;66.10
70206;BME280;57593;55.896;37.396;2023-04-08T01:22:14;100444.06;;;6.65;66.22
70206;BME280;57593;55.896;37.396;2023-04-08T01:23:01;100439.53;;;6.71;65.85
70206;BME280;57593;55.896;37.396;2023-04-08T01:23:54;100447.47;;;6.66;65.99
70206;BME280;57593;55.896;37.396;2023-04-08T01:24:29;100447.19;;;6.68;66.23
70206;BME280;57593;55.896;37.396;2023-04-08T01:25:04;100447.97;;;6.68;66.12
70206;BME280;57593;55.896;37.396;2023-04-08T01:25:38;100443.78;;;6.67;66.33
70206;BME280;57593;55.896;37.396;2023-04-08T01:26:12;100444.34;;;6.64;66.45
70206;BME280;57593;55.896;37.396;2023-04-08T01:26:51;100442.28;;;6.56;66.73
70206;BME280;57593;55.896;37.396;2023-04-08T01:27:22;100444.91;;;6.61;66.81
70206;BME280;57593;55.896;37.396;2023-04-08T01:27:54;100446.50;;;6.57;67.03
70206;BME280;57593;55.896;37.396;2023-04-08T01:28:28;100446.97;;;6.64;67.04
70206;BME280;57593;55.896;37.396;2023-04-08T01:29:04;100443.78;;;6.67;66.64
70206;BME280;57593;55.896;37.396;2023-04-08T01:29:36;100441.94;;;6.68;66.70
70206;BME280;57593;55.896;37.396;2023-04-08T01:30:09;100443.28;;;6.65;67.07
70206;BME280;57593;55.896;37.396;2023-04-08T01:30:42;100445.88;;;6.65;66.88
70206;BME280;57593;55.896;37.396;2023-04-08T01:31:14;100445.56;;;6.42;66.74
70206;BME280;57593;55.896;37.396;2023-04-08T01:31:46;100441.78;;;6.54;67.41
70206;BME280;57593;55.896;37.396;2023-04-08T01:32:18;100442.00;;;6.62;67.25
70206;BME280;57593;55.896;37.396;2023-04-08T01:32:53;100439.66;;;6.56;67.46
70206;BME280;57593;55.896;37.396;2023-04-08T01:33:27;100445.13;;;6.64;67.69
70206;BME280;57593;55.896;37.396;2023-04-08T01:33:59;100447.28;;;6.57;67.76
70206;BME280;57593;55.896;37.396;2023-04-08T01:34:33;100442.47;;;6.35;68.23
70206;BME280;57593;55.896;37.396;2023-04-08T01:35:05;100444.47;;;6.48;68.58
70206;BME280;57593;55.896;37.396;2023-04-08T01:35:37;100442.34;;;6.51;68.23
70206;BME280;57593;55.896;37.396;2023-04-08T01:36:09;100435.66;;;6.34;68.94
70206;BME280;57593;55.896;37.396;2023-04-08T01:36:43;100440.78;;;6.50;69.27
70206;BME280;57593;55.896;37.396;2023-04-08T01:37:17;100439.94;;;6.54;68.44
70206;BME280;57593;55.896;37.396;2023-04-08T01:37:50;100443.22;;;6.41;68.85
70206;BME280;57593;55.896;37.396;2023-04-08T01:38:22;100441.03;;;6.48;68.89
70206;BME280;57593;55.896;37.396;2023-04-08T01:38:55;100438.53;;;6.33;69.26
70206;BME280;57593;55.896;37.396;2023-04-08T01:39:26;100448.41;;;6.46;68.84
70206;BME280;57593;55.896;37.396;2023-04-08T01:39:59;100444.00;;;6.41;68.98
70206;BME280;57593;55.896;37.396;2023-04-08T01:40:32;100435.50;;;6.20;69.57
70206;BME280;57593;55.896;37.396;2023-04-08T01:41:08;100446.41;;;6.38;69.06
70206;BME280;57593;55.896;37.396;2023-04-08T01:41:40;100444.81;;;6.37;68.70
70206;BME280;57593;55.896;37.396;2023-04-08T01:42:11;100448.59;;;6.25;69.54
70206;BME280;57593;55.896;37.396;2023-04-08T01:42:44;100441.66;;;6.40;69.68
70206;BME280;57593;55.896;37.396;2023-04-08T01:43:16;100453.00;;;6.30;69.75
70206;BME280;57593;55.896;37.396;2023-04-08T01:43:47;100448.97;;;6.43;69.37
70206;BME280;57593;55.896;37.396;2023-04-08T01:44:20;100444.78;;;6.42;69.41
70206;BME280;57593;55.896;37.396;2023-04-08T01:44:54;100446.91;;;6.40;69.73
70206;BME280;57593;55.896;37.396;2023-04-08T01:45:26;100446.41;;;6.33;69.84
70206;BME280;57593;55.896;37.396;2023-04-08T01:46:00;100448.00;;;6.34;70.01
70206;BME280;57593;55.896;37.396;2023-04-08T01:46:32;100442.31;;;6.21;70.15
70206;BME280;57593;55.896;37.396;2023-04-08T01:47:03;100450.06;;;6.37;70.22
70206;BME280;57593;55.896;37.396;2023-04-08T01:47:34;100443.09;;;6.22;69.46
70206;BME280;57593;55.896;37.396;2023-04-08T01:48:06;100448.75;;;6.34;69.39
70206;BME280;57593;55.896;37.396;2023-04-08T01:48:38;100451.81;;;6.46;69.48
70206;BME280;57593;55.896;37.396;2023-04-08T01:49:10;100447.91;;;6.44;69.00
70206;BME280;57593;55.896;37.396;2023-04-08T01:49:41;100447.28;;;6.23;69.11
70206;BME280;57593;55.896;37.396;2023-04-08T01:50:13;100451.91;;;6.36;69.38
70206;BME280;57593;55.896;37.396;2023-04-08T01:50:45;100446.41;;;6.33;69.02
70206;BME280;57593;55.896;37.396;2023-04-08T01:51:17;100436.50;;;6.29;69.13
70206;BME280;57593;55.896;37.396;2023-04-08T01:51:49;100444.88;;;6.32;68.64
70206;BME280;57593;55.896;37.396;2023-04-08T01:52:22;100446.72;;;6.31;69.16
70206;BME280;57593;55.896;37.396;2023-04-08T01:52:55;100438.53;;;6.33;68.98
70206;BME280;57593;55.896;37.396;2023-04-08T01:53:26;100444.09;;;6.31;69.18
70206;BME280;57593;55.896;37.396;2023-04-08T01:53:57;100441.75;;;6.24;69.76
70206;BME280;57593;55.896;37.396;2023-04-08T01:54:28;100442.63;;;6.15;71.24
70206;BME280;57593;55.896;37.396;2023-04-08T01:55:00;100440.47;;;6.22;71.14
70206;BME280;57593;55.896;37.396;2023-04-08T01:55:31;100451.72;;;6.27;71.12
70206;BME280;57593;55.896;37.396;2023-04-08T01:56:05;100443.66;;;6.19;70.43
70206;BME280;57593;55.896;37.396;2023-04-08T01:56:40;100442.91;;;6.13;70.42
70206;BME280;57593;55.896;37.396;2023-04-08T01:57:18;100443.66;;;6.14;70.88
70206;BME280;57593;55.896;37.396;2023-04-08T01:57:51;100445.69;;;6.27;70.82
70206;BME280;57593;55.896;37.396;2023-04-08T01:58:23;100438.50;;;6.03;70.46
70206;BME280;57593;55.896;37.396;2023-04-08T01:58:58;100442.91;;;6.13;70.49
70206;BME280;57593;55.896;37.396;2023-04-08T01:59:34;100442.66;;;6.09;71.13
70206;BME280;57593;55.896;37.396;2023-04-08T02:00:08;100452.63;;;6.13;71.26
70206;BME280;57593;55.896;37.396;2023-04-08T02:00:53;100440.00;;;6.15;71.66
70206;BME280;57593;55.896;37.396;2023-04-08T02:01:26;100441.38;;;6.07;71.65
70206;BME280;57593;55.896;37.396;2023-04-08T02:01:59;100440.03;;;6.09;71.73
70206;BME280;57593;55.896;37.396;2023-04-08T02:02:35;100446.28;;;6.14;71.91
70206;BME280;57593;55.896;37.396;2023-04-08T02:03:06;100446.91;;;5.95;72.33
70206;BME280;57593;55.896;37.396;2023-04-08T02:03:40;100438.03;;;5.91;72.30
70206;BME280;57593;55.896;37.396;2023-04-08T02:04:12;100439.31;;;5.93;72.96
70206;BME280;57593;55.896;37.396;2023-04-08T02:04:43;100447.72;;;5.96;73.06
70206;BME280;57593;55.896;37.396;2023-04-08T02:05:13;100442.72;;;5.99;72.89
70206;BME280;57593;55.896;37.396;2023-04-08T02:05:45;100445.34;;;5.94;73.14
70206;BME280;57593;55.896;37.396;2023-04-08T02:06:15;100445.09;;;5.90;73.78
70206;BME280;57593;55.896;37.396;2023-04-08T02:06:47;100441.41;;;6.02;73.41
70206;BME280;57593;55.896;37.396;2023-04-08T02:07:18;100434.59;;;5.96;73.49
70206;BME280;57593;55.896;37.396;2023-04-08T02:07:49;100445.97;;;5.75;73.85
70206;BME280;57593;55.896;37.396;2023-04-08T02:08:21;100436.41;;;5.95;73.93
70206;BME280;57593;55.896;37.396;2023-04-08T02:08:53;100441.66;;;5.95;74.13
70206;BME280;57593;55.896;37.396;2023-04-08T02:09:25;100437.00;;;5.87;73.95
70206;BME280;57593;55.896;37.396;2023-04-08T02:09:56;100452.41;;;5.93;74.07
70206;BME280;57593;55.896;37.396;2023-04-08T02:10:28;100445.09;;;5.96;73.83
70206;BME280;57593;55.896;37.396;2023-04-08T02:10:58;100445.63;;;5.92;73.57
70206;BME280;57593;55.896;37.396;2023-04-08T02:11:29;100442.19;;;6.02;73.35
70206;BME280;57593;55.896;37.396;2023-04-08T02:12:01;100444.25;;;6.05;73.00
70206;BME280;57593;55.896;37.396;2023-04-08T02:12:32;100450.13;;;5.82;73.08
70206;BME280;57593;55.896;37.396;2023-04-08T02:13:04;100443.56;;;5.84;73.09
70206;BME280;57593;55.896;37.396;2023-04-08T02:13:35;100445.13;;;5.85;73.79
70206;BME280;57593;55.896;37.396;2023-04-08T02:14:05;100438.56;;;5.88;74.19
70206;BME280;57593;55.896;37.396;2023-04-08T02:14:38;100437.50;;;5.89;74.17
70206;BME280;57593;55.896;37.396;2023-04-08T02:15:14;100445.84;;;5.96;74.14
70206;BME280;57593;55.896;37.396;2023-04-08T02:15:50;100443.78;;;5.98;73.79
70206;BME280;57593;55.896;37.396;2023-04-08T02:16:30;100435.69;;;5.84;74.15
70206;BME280;57593;55.896;37.396;2023-04-08T02:18:16;100446.75;;;5.76;74.72
70206;BME280;57593;55.896;37.396;2023-04-08T02:18:59;100442.19;;;5.92;74.31
70206;BME280;57593;55.896;37.396;2023-04-08T02:19:46;100438.81;;;5.91;74.52
70206;BME280;57593;55.896;37.396;2023-04-08T02:20:23;100447.00;;;5.80;74.42
70206;BME280;57593;55.896;37.396;2023-04-08T02:21:10;100449.41;;;5.71;75.14
70206;BME280;57593;55.896;37.396;2023-04-08T02:21:48;100443.63;;;5.74;75.65
70206;BME280;57593;55.896;37.396;2023-04-08T02:23:16;100440.78;;;5.65;76.04
70206;BME280;57593;55.896;37.396;2023-04-08T02:23:49;100440.50;;;5.72;75.75
70206;BME280;57593;55.896;37.396;2023-04-08T02:24:21;100436.59;;;5.64;76.13
70206;BME280;57593;55.896;37.396;2023-04-08T02:24:52;100438.66;;;5.72;75.83
70206;BME280;57593;55.896;37.396;2023-04-08T02:25:24;100442.91;;;5.63;76.32
70206;BME280;57593;55.896;37.396;2023-04-08T02:25:55;100444.13;;;5.76;76.05
70206;BME280;57593;55.896;37.396;2023-04-08T02:26:32;100449.91;;;5.78;75.97
70206;BME280;57593;55.896;37.396;2023-04-08T02:27:03;100447.56;;;5.76;76.01
70206;BME280;57593;55.896;37.396;2023-04-08T02:27:36;100440.47;;;5.77;76.25
70206;BME280;57593;55.896;37.396;2023-04-08T02:28:10;100445.94;;;5.81;75.87
70206;BME280;57593;55.896;37.396;2023-04-08T02:28:41;100442.91;;;5.63;76.52
70206;BME280;57593;55.896;37.396;2023-04-08T02:29:14;100440.25;;;5.68;77.47
70206;BME280;57593;55.896;37.396;2023-04-08T02:29:46;100439.97;;;5.70;77.91
70206;BME280;57593;55.896;37.396;2023-04-08T02:30:18;100444.16;;;5.71;77.12
70206;BME280;57593;55.896;37.396;2023-04-08T02:30:51;100449.59;;;5.85;76.39
70206;BME280;57593;55.896;37.396;2023-04-08T02:31:25;100448.56;;;5.81;76.01
70206;BME280;57593;55.896;37.396;2023-04-08T02:31:56;100448.56;;;5.81;75.69
70206;BME280;57593;55.896;37.396;2023-04-08T02:32:27;100441.28;;;5.72;76.53
70206;BME280;57593;55.896;37.396;2023-04-08T02:33:03;100447.75;;;5.85;75.90
70206;BME280;57593;55.896;37.396;2023-04-08T02:33:34;100445.75;;;5.67;76.65
70206;BME280;57593;55.896;37.396;2023-04-08T02:34:08;100445.47;;;5.68;77.04
70206;BME280;57593;55.896;37.396;2023-04-08T02:34:40;100439.69;;;5.71;77.13
70206;BME280;57593;55.896;37.396;2023-04-08T02:35:13;100449.84;;;5.88;76.69
70206;BME280;57593;55.896;37.396;2023-04-08T02:35:47;100448.34;;;5.77;76.73
70206;BME280;57593;55.896;37.396;2023-04-08T02:36:18;100447.53;;;5.82;76.57
70206;BME280;57593;55.896;37.396;2023-04-08T02:36:50;100444.66;;;5.73;76.83
70206;BME280;57593;55.896;37.396;2023-04-08T02:37:21;100445.03;;;5.51;77.59
70206;BME280;57593;55.896;37.396;2023-04-08T02:37:52;100443.13;;;5.67;78.07
70206;BME280;57593;55.896;37.396;2023-04-08T02:38:23;100450.91;;;5.82;77.50
70206;BME280;57593;55.896;37.396;2023-04-08T02:38:53;100437.84;;;5.77;77.36
70206;BME280;57593;55.896;37.396;2023-04-08T02:39:33;100444.44;;;5.69;77.75
70206;BME280;57593;55.896;37.396;2023-04-08T02:40:52;100443.63;;;5.74;78.68
70206;BME280;57593;55.896;37.396;2023-04-08T02:41:27;100445.53;;;5.58;79.34
70206;BME280;57593;55.896;37.396;2023-04-08T02:41:59;100451.50;;;5.74;78.73
70206;BME280;57593;55.896;37.396;2023-04-08T02:42:30;100452.31;;;5.69;78.65
70206;BME280;57593;55.896;37.396;2023-04-08T02:43:01;100462.44;;;5.86;78.24
70206;BME280;57593;55.896;37.396;2023-04-08T02:43:31;100450.69;;;5.79;78.07
70206;BME280;57593;55.896;37.396;2023-04-08T02:44:02;100454.34;;;5.78;78.53
70206;BME280;57593;55.896;37.396;2023-04-08T02:44:33;100451.97;;;5.81;78.64
70206;BME280;57593;55.896;37.396;2023-04-08T02:45:07;100452.72;;;5.87;78.17
70206;BME280;57593;55.896;37.396;2023-04-08T02:45:41;100450.34;;;5.90;77.34
70206;BME280;57593;55.896;37.396;2023-04-08T02:46:13;100461.91;;;5.89;77.37
70206;BME280;57593;55.896;37.396;2023-04-08T02:46:43;100454.84;;;5.85;76.92
70206;BME280;57593;55.896;37.396;2023-04-08T02:47:14;100456.47;;;5.75;77.20
70206;BME280;57593;55.896;37.396;2023-04-08T02:47:46;100460.16;;;5.69;77.75
70206;BME280;57593;55.896;37.396;2023-04-08T02:48:17;100458.50;;;5.84;77.46
70206;BME280;57593;55.896;37.396;2023-04-08T02:48:47;100456.41;;;5.86;77.39
70206;BME280;57593;55.896;37.396;2023-04-08T02:49:19;100453.34;;;5.68;77.95
70206;BME280;57593;55.896;37.396;2023-04-08T02:49:49;100461.50;;;5.62;78.71
70206;BME280;57593;55.896;37.396;2023-04-08T02:50:22;100457.78;;;5.73;78.71
70206;BME280;57593;55.896;37.396;2023-04-08T02:50:53;100457.28;;;5.71;78.72
70206;BME280;57593;55.896;37.396;2023-04-08T02:51:24;100458.25;;;5.85;78.70
70206;BME280;57593;55.896;37.396;2023-04-08T02:51:55;100460.16;;;5.69;78.61
70206;BME280;57593;55.896;37.396;2023-04-08T02:52:26;100464.81;;;5.83;78.56
70206;BME280;57593;55.896;37.396;2023-04-08T02:52:56;100460.66;;;5.76;78.67
70206;BME280;57593;55.896;37.396;2023-04-08T02:53:27;100454.66;;;5.71;78.90
70206;BME280;57593;55.896;37.396;2023-04-08T02:53:57;100464.28;;;5.81;78.86
70206;BME280;57593;55.896;37.396;2023-04-08T02:54:28;100459.06;;;5.81;78.45
70206;BME280;57593;55.896;37.396;2023-04-08T02:54:59;100450.72;;;5.73;78.77
70206;BME280;57593;55.896;37.396;2023-04-08T02:55:30;100455.97;;;5.68;79.29
70206;BME280;57593;55.896;37.396;2023-04-08T02:56:00;100458.03;;;5.76;79.88
70206;BME280;57593;55.896;37.396;2023-04-08T02:56:31;100460.09;;;5.80;79.23